sensor_id;sensor_type;location;lat;lon;timestamp;pressure;altitude;pressure_sealevel;temperature;humidity
6829;BME280;17930;48.592;8.868;2023-08-24T00:01:26;96989.66;;;19.32;100.00
6829;BME280;17930;48.592;8.868;2023-08-24T00:03:53;96984.56;;;19.27;100.00
6829;BME280;17930;48.592;8.868;2023-08-24T00:06:19;96981.50;;;19.16;100.00
6829;BME280;17930;48.592;8.868;2023-08-24T00:08:46;96982.00;;;19.10;100.00
6829;BME280;17930;48.592;8.868;2023-08-24T00:11:13;96980.53;;;19.21;100.00
6829;BME280;17930;48.592;8.868;2023-08-24T00:13:41;96977.88;;;19.21;100.00
6829;BME280;17930;48.592;8.868;2023-08-24T00:16:11;96978.53;;;19.18;100.00
6829;BME280;17930;48.592;8.868;2023-08-24T00:18:38;96978.53;;;19.18;100.00
6829;BME280;17930;48.592;8.868;2023-08-24T00:21:05;96975.25;;;19.21;100.00
6829;BME280;17930;48.592;8.868;2023-08-24T00:23:33;96973.06;;;19.23;100.00
6829;BME280;17930;48.592;8.868;2023-08-24T00:26:00;96969.94;;;19.21;100.00
6829;BME280;17930;48.592;8.868;2023-08-24T00:28:26;96965.56;;;19.25;100.00
6829;BME280;17930;48.592;8.868;2023-08-24T00:30:54;96963.19;;;19.32;100.00
6829;BME280;17930;48.592;8.868;2023-08-24T00:33:21;96969.13;;;19.29;100.00
6829;BME280;17930;48.592;8.868;2023-08-24T00:35:47;96978.16;;;19.28;100.00
6829;BME280;17930;48.592;8.868;2023-08-24T00:38:14;96970.22;;;19.28;100.00
6829;BME280;17930;48.592;8.868;2023-08-24T00:40:41;96972.59;;;19.21;100.00
6829;BME280;17930;48.592;8.868;2023-08-24T00:43:09;96961.44;;;19.15;100.00
6829;BME280;17930;48.592;8.868;2023-08-24T00:45:35;96956.19;;;19.07;100.00
6829;BME280;17930;48.592;8.868;2023-08-24T00:48:04;96950.28;;;19.10;100.00
6829;BME280;17930;48.592;8.868;2023-08-24T00:50:31;96954.34;;;18.99;100.00
6829;BME280;17930;48.592;8.868;2023-08-24T00:52:58;96948.22;;;18.78;100.00
6829;BME280;17930;48.592;8.868;2023-08-24T00:55:25;96949.38;;;18.69;100.00
6829;BME280;17930;48.592;8.868;2023-08-24T00:57:52;96957.25;;;18.77;100.00
6829;BME280;17930;48.592;8.868;2023-08-24T01:00:18;96961.50;;;18.61;100.00
6829;BME280;17930;48.592;8.868;2023-08-24T01:02:46;96964.66;;;18.47;100.00
6829;BME280;17930;48.592;8.868;2023-08-24T01:05:14;96956.16;;;18.33;100.00
6829;BME280;17930;48.592;8.868;2023-08-24T01:07:41;96960.84;;;18.19;100.00
6829;BME280;17930;48.592;8.868;2023-08-24T01:10:09;96958.06;;;18.15;100.00
6829;BME280;17930;48.592;8.868;2023-08-24T01:12:55;96956.50;;;18.23;100.00
6829;BME280;17930;48.592;8.868;2023-08-24T01:15:31;96954.47;;;18.03;100.00
6829;BME280;17930;48.592;8.868;2023-08-24T01:18:03;96950.16;;;17.90;100.00
6829;BME280;17930;48.592;8.868;2023-08-24T01:20:33;96950.31;;;17.85;100.00
6829;BME280;17930;48.592;8.868;2023-08-24T01:23:08;96944.25;;;17.76;100.00
6829;BME280;17930;48.592;8.868;2023-08-24T01:25:46;96955.91;;;17.75;100.00
6829;BME280;17930;48.592;8.868;2023-08-24T01:28:17;96955.59;;;17.68;100.00
6829;BME280;17930;48.592;8.868;2023-08-24T01:30:46;96941.94;;;17.66;100.00
6829;BME280;17930;48.592;8.868;2023-08-24T01:33:13;96941.19;;;17.66;100.00
6829;BME280;17930;48.592;8.868;2023-08-24T01:35:40;96936.84;;;17.61;100.00
6829;BME280;17930;48.592;8.868;2023-08-24T01:38:07;96936.66;;;17.66;100.00
6829;BME280;17930;48.592;8.868;2023-08-24T01:40:48;96935.25;;;17.86;100.00
6829;BME280;17930;48.592;8.868;2023-08-24T01:43:25;96937.41;;;18.00;100.00
6829;BME280;17930;48.592;8.868;2023-08-24T01:45:54;96936.31;;;18.10;100.00
6829;BME280;17930;48.592;8.868;2023-08-24T01:48:22;96931.66;;;18.07;100.00
6829;BME280;17930;48.592;8.868;2023-08-24T01:50:49;96936.00;;;18.03;100.00
6829;BME280;17930;48.592;8.868;2023-08-24T01:53:17;96936.94;;;18.07;100.00
6829;BME280;17930;48.592;8.868;2023-08-24T01:55:44;96937.84;;;18.11;100.00
6829;BME280;17930;48.592;8.868;2023-08-24T01:58:11;96942.34;;;18.10;100.00
6829;BME280;17930;48.592;8.868;2023-08-24T02:00:39;96934.31;;;18.15;100.00
6829;BME280;17930;48.592;8.868;2023-08-24T02:03:06;96921.09;;;18.07;100.00
6829;BME280;17930;48.592;8.868;2023-08-24T02:05:32;96925.47;;;17.86;100.00
6829;BME280;17930;48.592;8.868;2023-08-24T02:07:59;96923.59;;;17.78;100.00
6829;BME280;17930;48.592;8.868;2023-08-24T02:10:26;96911.22;;;17.70;100.00
6829;BME280;17930;48.592;8.868;2023-08-24T02:12:52;96905.44;;;17.77;100.00
6829;BME280;17930;48.592;8.868;2023-08-24T02:15:19;96913.97;;;17.82;100.00
6829;BME280;17930;48.592;8.868;2023-08-24T02:17:47;96911.81;;;17.84;100.00
6829;BME280;17930;48.592;8.868;2023-08-24T02:20:14;96908.22;;;17.89;100.00
6829;BME280;17930;48.592;8.868;2023-08-24T02:22:41;96912.38;;;17.98;100.00
6829;BME280;17930;48.592;8.868;2023-08-24T02:25:10;96919.22;;;17.99;100.00
6829;BME280;17930;48.592;8.868;2023-08-24T02:27:37;96916.13;;;17.97;100.00
6829;BME280;17930;48.592;8.868;2023-08-24T02:30:04;96919.53;;;18.06;100.00
6829;BME280;17930;48.592;8.868;2023-08-24T02:32:31;96916.88;;;18.06;100.00
6829;BME280;17930;48.592;8.868;2023-08-24T02:35:00;96908.97;;;18.06;100.00
6829;BME280;17930;48.592;8.868;2023-08-24T02:37:28;96904.47;;;18.15;100.00
6829;BME280;17930;48.592;8.868;2023-08-24T02:39:54;96890.75;;;18.30;100.00
6829;BME280;17930;48.592;8.868;2023-08-24T02:42:21;96886.50;;;18.46;100.00
6829;BME280;17930;48.592;8.868;2023-08-24T02:44:48;96909.75;;;18.60;100.00
6829;BME280;17930;48.592;8.868;2023-08-24T02:47:15;96901.34;;;18.58;100.00
6829;BME280;17930;48.592;8.868;2023-08-24T02:49:41;96894.66;;;18.61;100.00
6829;BME280;17930;48.592;8.868;2023-08-24T02:52:09;96888.34;;;18.53;100.00
6829;BME280;17930;48.592;8.868;2023-08-24T02:54:36;96906.56;;;18.38;100.00
6829;BME280;17930;48.592;8.868;2023-08-24T02:57:02;96904.53;;;18.44;100.00
6829;BME280;17930;48.592;8.868;2023-08-24T02:59:30;96898.63;;;18.47;100.00
6829;BME280;17930;48.592;8.868;2023-08-24T03:01:57;96901.25;;;18.47;100.00
6829;BME280;17930;48.592;8.868;2023-08-24T03:04:24;96889.47;;;18.36;100.00
6829;BME280;17930;48.592;8.868;2023-08-24T03:06:51;96894.03;;;18.27;100.00
6829;BME280;17930;48.592;8.868;2023-08-24T03:09:19;96888.25;;;18.33;100.00
6829;BME280;17930;48.592;8.868;2023-08-24T03:11:46;96887.19;;;18.26;100.00
6829;BME280;17930;48.592;8.868;2023-08-24T03:14:12;96885.81;;;18.11;100.00
6829;BME280;17930;48.592;8.868;2023-08-24T03:16:39;96883.00;;;18.08;100.00
6829;BME280;17930;48.592;8.868;2023-08-24T03:19:06;96876.34;;;18.10;100.00
6829;BME280;17930;48.592;8.868;2023-08-24T03:21:32;96880.97;;;18.13;100.00
6829;BME280;17930;48.592;8.868;2023-08-24T03:23:59;96869.53;;;18.18;100.00
6829;BME280;17930;48.592;8.868;2023-08-24T03:26:27;96872.63;;;18.20;100.00
6829;BME280;17930;48.592;8.868;2023-08-24T03:28:54;96872.28;;;18.13;100.00
6829;BME280;17930;48.592;8.868;2023-08-24T03:31:21;96862.06;;;18.03;100.00
6829;BME280;17930;48.592;8.868;2023-08-24T03:33:47;96864.09;;;18.06;100.00
6829;BME280;17930;48.592;8.868;2023-08-24T03:36:14;96865.31;;;18.08;100.00
6829;BME280;17930;48.592;8.868;2023-08-24T03:38:40;96857.56;;;18.03;100.00
6829;BME280;17930;48.592;8.868;2023-08-24T03:41:07;96860.50;;;18.02;100.00
6829;BME280;17930;48.592;8.868;2023-08-24T03:43:35;96857.72;;;18.07;100.00
6829;BME280;17930;48.592;8.868;2023-08-24T03:46:03;96854.75;;;18.08;100.00
6829;BME280;17930;48.592;8.868;2023-08-24T03:48:31;96858.31;;;18.12;100.00
6829;BME280;17930;48.592;8.868;2023-08-24T03:50:58;96852.13;;;18.17;100.00
6829;BME280;17930;48.592;8.868;2023-08-24T03:53:25;96847.25;;;18.27;100.00
6829;BME280;17930;48.592;8.868;2023-08-24T03:55:52;96847.41;;;18.31;100.00
6829;BME280;17930;48.592;8.868;2023-08-24T03:58:19;96840.28;;;18.23;100.00
6829;BME280;17930;48.592;8.868;2023-08-24T04:00:47;96842.81;;;18.11;100.00
6829;BME280;17930;48.592;8.868;2023-08-24T04:03:14;96841.25;;;18.10;100.00
6829;BME280;17930;48.592;8.868;2023-08-24T04:05:41;96845.59;;;18.06;100.00
6829;BME280;17930;48.592;8.868;2023-08-24T04:08:08;96855.41;;;18.05;100.00
6829;BME280;17930;48.592;8.868;2023-08-24T04:10:34;96850.78;;;17.94;100.00
6829;BME280;17930;48.592;8.868;2023-08-24T04:13:01;96848.25;;;17.97;100.00
6829;BME280;17930;48.592;8.868;2023-08-24T04:15:28;96851.22;;;17.96;100.00
6829;BME280;17930;48.592;8.868;2023-08-24T04:17:55;96851.53;;;17.95;100.00
6829;BME280;17930;48.592;8.868;2023-08-24T04:20:22;96850.16;;;17.89;100.00
6829;BME280;17930;48.592;8.868;2023-08-24T04:22:49;96850.59;;;17.99;100.00
6829;BME280;17930;48.592;8.868;2023-08-24T04:25:16;96844.53;;;17.98;100.00
6829;BME280;17930;48.592;8.868;2023-08-24T04:27:42;96844.09;;;17.88;100.00
6829;BME280;17930;48.592;8.868;2023-08-24T04:30:10;96839.75;;;17.84;100.00
6829;BME280;17930;48.592;8.868;2023-08-24T04:32:37;96838.25;;;17.74;100.00
6829;BME280;17930;48.592;8.868;2023-08-24T04:35:06;96839.47;;;17.68;100.00
6829;BME280;17930;48.592;8.868;2023-08-24T04:37:33;96833.88;;;17.78;100.00
6829;BME280;17930;48.592;8.868;2023-08-24T04:40:00;96829.53;;;17.82;100.00
6829;BME280;17930;48.592;8.868;2023-08-24T04:42:26;96826.56;;;17.84;100.00
6829;BME280;17930;48.592;8.868;2023-08-24T04:44:53;96821.44;;;17.87;100.00
6829;BME280;17930;48.592;8.868;2023-08-24T04:47:20;96820.69;;;17.78;100.00
6829;BME280;17930;48.592;8.868;2023-08-24T04:49:46;96818.63;;;17.92;100.00
6829;BME280;17930;48.592;8.868;2023-08-24T04:52:15;96825.16;;;17.86;100.00
6829;BME280;17930;48.592;8.868;2023-08-24T04:54:41;96830.44;;;17.86;100.00
6829;BME280;17930;48.592;8.868;2023-08-24T04:57:10;96835.38;;;17.96;100.00
6829;BME280;17930;48.592;8.868;2023-08-24T04:59:37;96836.31;;;18.00;100.00
6829;BME280;17930;48.592;8.868;2023-08-24T05:02:04;96834.28;;;18.05;100.00
6829;BME280;17930;48.592;8.868;2023-08-24T05:04:30;96838.22;;;18.37;100.00
6829;BME280;17930;48.592;8.868;2023-08-24T05:06:58;96837.81;;;18.55;100.00
6829;BME280;17930;48.592;8.868;2023-08-24T05:09:26;96829.47;;;18.73;100.00
6829;BME280;17930;48.592;8.868;2023-08-24T05:11:53;96831.34;;;18.93;100.00
6829;BME280;17930;48.592;8.868;2023-08-24T05:14:19;96827.25;;;19.04;100.00
6829;BME280;17930;48.592;8.868;2023-08-24T05:16:46;96825.19;;;18.81;100.00
6829;BME280;17930;48.592;8.868;2023-08-24T05:19:12;96826.22;;;18.88;100.00
6829;BME280;17930;48.592;8.868;2023-08-24T05:21:39;96813.09;;;19.00;100.00
6829;BME280;17930;48.592;8.868;2023-08-24T05:24:06;96818.03;;;19.10;100.00
6829;BME280;17930;48.592;8.868;2023-08-24T05:26:34;96808.75;;;19.04;100.00
6829;BME280;17930;48.592;8.868;2023-08-24T05:29:00;96810.28;;;19.05;100.00
6829;BME280;17930;48.592;8.868;2023-08-24T05:31:27;96808.47;;;19.17;100.00
6829;BME280;17930;48.592;8.868;2023-08-24T05:33:54;96802.34;;;19.25;100.00
6829;BME280;17930;48.592;8.868;2023-08-24T05:36:20;96800.09;;;19.48;100.00
6829;BME280;17930;48.592;8.868;2023-08-24T05:38:47;96795.59;;;19.60;100.00
6829;BME280;17930;48.592;8.868;2023-08-24T05:41:13;96800.72;;;19.77;100.00
6829;BME280;17930;48.592;8.868;2023-08-24T05:43:42;96794.78;;;19.80;100.00
6829;BME280;17930;48.592;8.868;2023-08-24T05:46:08;96786.91;;;19.92;100.00
6829;BME280;17930;48.592;8.868;2023-08-24T05:48:35;96794.06;;;20.03;100.00
6829;BME280;17930;48.592;8.868;2023-08-24T05:51:02;96797.38;;;20.00;100.00
6829;BME280;17930;48.592;8.868;2023-08-24T05:53:31;96802.47;;;20.05;100.00
6829;BME280;17930;48.592;8.868;2023-08-24T05:55:58;96793.44;;;20.30;100.00
6829;BME280;17930;48.592;8.868;2023-08-24T05:58:25;96794.72;;;20.24;100.00
6829;BME280;17930;48.592;8.868;2023-08-24T06:00:59;96791.44;;;20.39;100.00
6829;BME280;17930;48.592;8.868;2023-08-24T06:03:26;96793.53;;;20.33;100.00
6829;BME280;17930;48.592;8.868;2023-08-24T06:05:52;96786.88;;;20.15;100.00
6829;BME280;17930;48.592;8.868;2023-08-24T06:08:19;96789.97;;;20.05;100.00
6829;BME280;17930;48.592;8.868;2023-08-24T06:10:46;96787.69;;;20.16;100.00
6829;BME280;17930;48.592;8.868;2023-08-24T06:13:12;96779.94;;;20.35;100.00
6829;BME280;17930;48.592;8.868;2023-08-24T06:15:39;96777.94;;;20.56;100.00
6829;BME280;17930;48.592;8.868;2023-08-24T06:18:07;96775.28;;;20.79;100.00
6829;BME280;17930;48.592;8.868;2023-08-24T06:20:34;96771.44;;;21.04;100.00
6829;BME280;17930;48.592;8.868;2023-08-24T06:23:00;96771.63;;;21.11;100.00
6829;BME280;17930;48.592;8.868;2023-08-24T06:25:28;96776.66;;;21.28;100.00
6829;BME280;17930;48.592;8.868;2023-08-24T06:27:54;96780.59;;;21.34;100.00
6829;BME280;17930;48.592;8.868;2023-08-24T06:30:21;96780.72;;;21.37;100.00
6829;BME280;17930;48.592;8.868;2023-08-24T06:32:48;96778.25;;;21.44;100.00
6829;BME280;17930;48.592;8.868;2023-08-24T06:35:16;96783.72;;;21.36;100.00
6829;BME280;17930;48.592;8.868;2023-08-24T06:37:43;96792.31;;;21.33;100.00
6829;BME280;17930;48.592;8.868;2023-08-24T06:40:11;96790.94;;;21.23;100.00
6829;BME280;17930;48.592;8.868;2023-08-24T06:42:38;96797.06;;;21.39;100.00
6829;BME280;17930;48.592;8.868;2023-08-24T06:45:05;96805.34;;;21.50;100.00
6829;BME280;17930;48.592;8.868;2023-08-24T06:47:34;96797.47;;;21.53;100.00
6829;BME280;17930;48.592;8.868;2023-08-24T06:50:01;96805.47;;;21.68;100.00
6829;BME280;17930;48.592;8.868;2023-08-24T06:52:29;96813.97;;;21.74;100.00
6829;BME280;17930;48.592;8.868;2023-08-24T06:54:55;96823.25;;;21.95;100.00
6829;BME280;17930;48.592;8.868;2023-08-24T06:57:22;96824.09;;;21.99;100.00
6829;BME280;17930;48.592;8.868;2023-08-24T06:59:49;96819.09;;;22.25;100.00
6829;BME280;17930;48.592;8.868;2023-08-24T07:02:17;96816.94;;;22.46;100.00
6829;BME280;17930;48.592;8.868;2023-08-24T07:04:44;96822.84;;;22.55;100.00
6829;BME280;17930;48.592;8.868;2023-08-24T07:07:10;96809.25;;;22.75;100.00
6829;BME280;17930;48.592;8.868;2023-08-24T07:09:39;96808.34;;;22.86;100.00
6829;BME280;17930;48.592;8.868;2023-08-24T07:12:06;96786.56;;;23.15;100.00
6829;BME280;17930;48.592;8.868;2023-08-24T07:14:35;96787.75;;;23.36;100.00
6829;BME280;17930;48.592;8.868;2023-08-24T07:17:02;96788.56;;;23.78;100.00
6829;BME280;17930;48.592;8.868;2023-08-24T07:19:29;96783.75;;;24.54;100.00
6829;BME280;17930;48.592;8.868;2023-08-24T07:21:56;96780.00;;;24.58;100.00
6829;BME280;17930;48.592;8.868;2023-08-24T07:24:23;96777.00;;;24.63;100.00
6829;BME280;17930;48.592;8.868;2023-08-24T07:26:53;96784.72;;;24.20;100.00
6829;BME280;17930;48.592;8.868;2023-08-24T07:29:19;96791.66;;;24.24;100.00
6829;BME280;17930;48.592;8.868;2023-08-24T07:31:46;96790.72;;;24.62;100.00
6829;BME280;17930;48.592;8.868;2023-08-24T07:34:14;96770.56;;;25.23;100.00
6829;BME280;17930;48.592;8.868;2023-08-24T07:36:40;96770.06;;;25.76;100.00
6829;BME280;17930;48.592;8.868;2023-08-24T07:39:08;96772.31;;;26.67;100.00
6829;BME280;17930;48.592;8.868;2023-08-24T07:41:34;96773.63;;;27.89;100.00
6829;BME280;17930;48.592;8.868;2023-08-24T07:44:02;96766.75;;;28.71;100.00
6829;BME280;17930;48.592;8.868;2023-08-24T07:46:29;96753.78;;;29.58;100.00
6829;BME280;17930;48.592;8.868;2023-08-24T07:48:56;96751.72;;;29.76;100.00
6829;BME280;17930;48.592;8.868;2023-08-24T07:51:23;96753.44;;;30.57;100.00
6829;BME280;17930;48.592;8.868;2023-08-24T07:53:49;96759.88;;;31.07;100.00
6829;BME280;17930;48.592;8.868;2023-08-24T07:56:17;96758.19;;;31.19;100.00
6829;BME280;17930;48.592;8.868;2023-08-24T07:58:44;96758.66;;;31.44;100.00
6829;BME280;17930;48.592;8.868;2023-08-24T08:01:12;96748.34;;;31.92;100.00
6829;BME280;17930;48.592;8.868;2023-08-24T08:03:39;96754.88;;;32.85;100.00
6829;BME280;17930;48.592;8.868;2023-08-24T08:06:05;96751.88;;;33.22;96.75
6829;BME280;17930;48.592;8.868;2023-08-24T08:08:32;96761.25;;;33.17;95.10
6829;BME280;17930;48.592;8.868;2023-08-24T08:11:00;96754.03;;;33.50;91.28
6829;BME280;17930;48.592;8.868;2023-08-24T08:13:28;96750.25;;;33.63;86.45
6829;BME280;17930;48.592;8.868;2023-08-24T08:16:00;96752.66;;;33.22;90.98
6829;BME280;17930;48.592;8.868;2023-08-24T08:18:28;96759.09;;;32.67;96.00
6829;BME280;17930;48.592;8.868;2023-08-24T08:20:55;96758.53;;;33.37;90.07
6829;BME280;17930;48.592;8.868;2023-08-24T08:23:22;96761.25;;;33.17;89.73
6829;BME280;17930;48.592;8.868;2023-08-24T08:25:52;96759.72;;;33.90;89.17
6829;BME280;17930;48.592;8.868;2023-08-24T08:28:19;96767.78;;;34.10;91.46
6829;BME280;17930;48.592;8.868;2023-08-24T08:30:48;96762.69;;;33.96;83.92
6829;BME280;17930;48.592;8.868;2023-08-24T08:33:15;96750.38;;;34.71;81.91
6829;BME280;17930;48.592;8.868;2023-08-24T08:35:43;96756.06;;;35.32;81.79
6829;BME280;17930;48.592;8.868;2023-08-24T08:38:10;96754.50;;;35.47;79.05
6829;BME280;17930;48.592;8.868;2023-08-24T08:40:37;96752.88;;;34.49;83.07
6829;BME280;17930;48.592;8.868;2023-08-24T08:43:04;96754.28;;;35.42;79.16
6829;BME280;17930;48.592;8.868;2023-08-24T08:45:32;96751.13;;;35.43;78.16
6829;BME280;17930;48.592;8.868;2023-08-24T08:48:00;96742.81;;;34.50;78.98
6829;BME280;17930;48.592;8.868;2023-08-24T08:50:27;96747.28;;;34.56;79.88
6829;BME280;17930;48.592;8.868;2023-08-24T08:52:55;96745.63;;;35.31;78.48
6829;BME280;17930;48.592;8.868;2023-08-24T08:55:22;96738.34;;;35.81;76.60
6829;BME280;17930;48.592;8.868;2023-08-24T08:57:49;96748.38;;;35.84;76.22
6829;BME280;17930;48.592;8.868;2023-08-24T09:00:18;96739.19;;;35.78;75.76
6829;BME280;17930;48.592;8.868;2023-08-24T09:02:47;96750.56;;;35.08;79.54
6829;BME280;17930;48.592;8.868;2023-08-24T09:05:16;96744.34;;;34.19;82.12
6829;BME280;17930;48.592;8.868;2023-08-24T09:07:44;96731.47;;;35.64;80.91
6829;BME280;17930;48.592;8.868;2023-08-24T09:10:12;96726.59;;;35.96;78.95
6829;BME280;17930;48.592;8.868;2023-08-24T09:12:39;96719.66;;;36.08;77.19
6829;BME280;17930;48.592;8.868;2023-08-24T09:15:06;96712.75;;;36.28;77.23
6829;BME280;17930;48.592;8.868;2023-08-24T09:17:33;96709.47;;;36.79;74.76
6829;BME280;17930;48.592;8.868;2023-08-24T09:20:06;96699.03;;;37.72;72.78
6829;BME280;17930;48.592;8.868;2023-08-24T09:22:34;96696.28;;;38.11;70.79
6829;BME280;17930;48.592;8.868;2023-08-24T09:25:02;96688.34;;;38.04;68.93
6829;BME280;17930;48.592;8.868;2023-08-24T09:27:32;96681.16;;;38.19;71.03
6829;BME280;17930;48.592;8.868;2023-08-24T09:29:58;96679.66;;;38.45;70.12
6829;BME280;17930;48.592;8.868;2023-08-24T09:32:27;96674.66;;;38.34;70.38
6829;BME280;17930;48.592;8.868;2023-08-24T09:34:55;96672.97;;;38.46;68.85
6829;BME280;17930;48.592;8.868;2023-08-24T09:37:22;96672.41;;;38.50;67.59
6829;BME280;17930;48.592;8.868;2023-08-24T09:39:48;96653.25;;;38.06;67.37
6829;BME280;17930;48.592;8.868;2023-08-24T09:42:24;96654.78;;;38.87;69.41
6829;BME280;17930;48.592;8.868;2023-08-24T09:44:52;96659.56;;;39.28;64.50
6829;BME280;17930;48.592;8.868;2023-08-24T09:47:19;96649.22;;;39.41;66.60
6829;BME280;17930;48.592;8.868;2023-08-24T09:49:46;96642.44;;;39.18;63.87
6829;BME280;17930;48.592;8.868;2023-08-24T09:52:14;96633.31;;;39.21;64.00
6829;BME280;17930;48.592;8.868;2023-08-24T09:54:42;96631.41;;;40.09;63.10
6829;BME280;17930;48.592;8.868;2023-08-24T09:57:09;96619.31;;;39.78;61.51
6829;BME280;17930;48.592;8.868;2023-08-24T09:59:39;96619.69;;;39.62;62.47
6829;BME280;17930;48.592;8.868;2023-08-24T10:02:16;96617.38;;;39.93;62.88
6829;BME280;17930;48.592;8.868;2023-08-24T10:04:46;96614.00;;;39.98;62.28
6829;BME280;17930;48.592;8.868;2023-08-24T10:07:15;96611.22;;;39.84;63.39
6829;BME280;17930;48.592;8.868;2023-08-24T10:09:53;96601.72;;;38.79;64.52
6829;BME280;17930;48.592;8.868;2023-08-24T10:12:25;96601.22;;;38.90;66.65
6829;BME280;17930;48.592;8.868;2023-08-24T10:14:58;96595.97;;;38.68;66.37
6829;BME280;17930;48.592;8.868;2023-08-24T10:17:27;96590.91;;;39.44;63.51
6829;BME280;17930;48.592;8.868;2023-08-24T10:19:55;96598.34;;;39.02;63.35
6829;BME280;17930;48.592;8.868;2023-08-24T10:22:26;96583.53;;;39.58;63.04
6829;BME280;17930;48.592;8.868;2023-08-24T10:24:54;96580.81;;;38.58;64.37
6829;BME280;17930;48.592;8.868;2023-08-24T10:27:22;96583.53;;;38.14;67.47
6829;BME280;17930;48.592;8.868;2023-08-24T10:29:49;96579.41;;;38.45;65.33
6829;BME280;17930;48.592;8.868;2023-08-24T10:32:16;96581.06;;;38.96;65.41
6829;BME280;17930;48.592;8.868;2023-08-24T10:34:45;96585.84;;;39.19;63.16
6829;BME280;17930;48.592;8.868;2023-08-24T10:37:12;96579.69;;;39.33;64.55
6829;BME280;17930;48.592;8.868;2023-08-24T10:39:44;96572.94;;;39.75;61.95
6829;BME280;17930;48.592;8.868;2023-08-24T10:42:11;96566.13;;;39.70;62.21
6829;BME280;17930;48.592;8.868;2023-08-24T10:44:39;96577.75;;;38.03;66.12
6829;BME280;17930;48.592;8.868;2023-08-24T10:47:18;96569.72;;;38.71;66.05
6829;BME280;17930;48.592;8.868;2023-08-24T10:49:58;96562.09;;;38.84;67.48
6829;BME280;17930;48.592;8.868;2023-08-24T10:52:26;96560.09;;;39.66;64.91
6829;BME280;17930;48.592;8.868;2023-08-24T10:54:56;96560.63;;;39.79;62.22
6829;BME280;17930;48.592;8.868;2023-08-24T10:57:24;96552.88;;;39.55;62.67
6829;BME280;17930;48.592;8.868;2023-08-24T11:00:00;96542.00;;;39.69;62.42
6829;BME280;17930;48.592;8.868;2023-08-24T11:02:41;96533.69;;;40.24;63.66
6829;BME280;17930;48.592;8.868;2023-08-24T11:05:16;96535.25;;;40.97;60.75
6829;BME280;17930;48.592;8.868;2023-08-24T11:07:51;96525.03;;;41.12;60.83
6829;BME280;17930;48.592;8.868;2023-08-24T11:10:17;96523.84;;;41.33;59.66
6829;BME280;17930;48.592;8.868;2023-08-24T11:13:07;96518.16;;;41.51;59.85
6829;BME280;17930;48.592;8.868;2023-08-24T11:15:36;96511.34;;;42.25;59.38
6829;BME280;17930;48.592;8.868;2023-08-24T11:18:23;96508.72;;;41.57;57.91
6829;BME280;17930;48.592;8.868;2023-08-24T11:20:53;96501.75;;;41.22;57.87
6829;BME280;17930;48.592;8.868;2023-08-24T11:23:22;96510.50;;;40.92;59.04
6829;BME280;17930;48.592;8.868;2023-08-24T11:25:50;96505.13;;;41.31;58.13
6829;BME280;17930;48.592;8.868;2023-08-24T11:28:21;96498.13;;;41.45;57.36
6829;BME280;17930;48.592;8.868;2023-08-24T11:30:48;96504.75;;;41.38;57.99
6829;BME280;17930;48.592;8.868;2023-08-24T11:33:16;96495.44;;;41.50;57.42
6829;BME280;17930;48.592;8.868;2023-08-24T11:35:44;96497.66;;;41.66;57.28
6829;BME280;17930;48.592;8.868;2023-08-24T11:38:13;96484.63;;;42.26;56.67
6829;BME280;17930;48.592;8.868;2023-08-24T11:40:39;96490.91;;;41.87;55.65
6829;BME280;17930;48.592;8.868;2023-08-24T11:43:06;96485.94;;;40.97;57.37
6829;BME280;17930;48.592;8.868;2023-08-24T11:45:35;96487.09;;;40.76;59.18
6829;BME280;17930;48.592;8.868;2023-08-24T11:48:03;96479.19;;;41.47;58.17
6829;BME280;17930;48.592;8.868;2023-08-24T11:50:31;96485.91;;;40.11;58.60
6829;BME280;17930;48.592;8.868;2023-08-24T11:52:59;96474.50;;;41.33;57.77
6829;BME280;17930;48.592;8.868;2023-08-24T11:55:27;96460.34;;;42.19;56.46
6829;BME280;17930;48.592;8.868;2023-08-24T11:57:54;96465.41;;;43.18;56.68
6829;BME280;17930;48.592;8.868;2023-08-24T12:00:21;96474.50;;;42.37;55.41
6829;BME280;17930;48.592;8.868;2023-08-24T12:02:49;96468.97;;;41.67;55.57
6829;BME280;17930;48.592;8.868;2023-08-24T12:05:23;96467.66;;;41.63;57.05
6829;BME280;17930;48.592;8.868;2023-08-24T12:07:52;96460.03;;;42.37;55.80
6829;BME280;17930;48.592;8.868;2023-08-24T12:10:19;96453.91;;;42.53;54.42
6829;BME280;17930;48.592;8.868;2023-08-24T12:12:48;96456.41;;;42.51;55.26
6829;BME280;17930;48.592;8.868;2023-08-24T12:15:16;96451.34;;;42.44;54.17
6829;BME280;17930;48.592;8.868;2023-08-24T12:17:43;96445.19;;;42.54;53.34
6829;BME280;17930;48.592;8.868;2023-08-24T12:20:18;96443.94;;;42.24;53.12
6829;BME280;17930;48.592;8.868;2023-08-24T12:22:50;96439.59;;;42.43;54.06
6829;BME280;17930;48.592;8.868;2023-08-24T12:25:17;96427.31;;;42.14;55.68
6829;BME280;17930;48.592;8.868;2023-08-24T12:27:44;96417.06;;;42.65;54.36
6829;BME280;17930;48.592;8.868;2023-08-24T12:30:12;96412.91;;;43.16;54.63
6829;BME280;17930;48.592;8.868;2023-08-24T12:32:43;96406.53;;;44.37;52.89
6829;BME280;17930;48.592;8.868;2023-08-24T12:35:09;96394.00;;;44.14;51.50
6829;BME280;17930;48.592;8.868;2023-08-24T12:37:36;96402.94;;;43.19;53.09
6829;BME280;17930;48.592;8.868;2023-08-24T12:40:04;96396.84;;;43.04;52.97
6829;BME280;17930;48.592;8.868;2023-08-24T12:42:31;96380.94;;;43.24;54.24
6829;BME280;17930;48.592;8.868;2023-08-24T12:44:57;96369.28;;;43.40;52.68
6829;BME280;17930;48.592;8.868;2023-08-24T12:47:25;96375.91;;;43.81;52.65
6829;BME280;17930;48.592;8.868;2023-08-24T12:49:52;96377.53;;;43.40;52.09
6829;BME280;17930;48.592;8.868;2023-08-24T12:52:21;96375.88;;;42.70;53.29
6829;BME280;17930;48.592;8.868;2023-08-24T12:54:48;96374.38;;;43.05;53.08
6829;BME280;17930;48.592;8.868;2023-08-24T12:57:14;96365.97;;;44.21;51.78
6829;BME280;17930;48.592;8.868;2023-08-24T12:59:41;96374.63;;;42.66;52.31
6829;BME280;17930;48.592;8.868;2023-08-24T13:02:08;96374.56;;;41.54;54.58
6829;BME280;17930;48.592;8.868;2023-08-24T13:04:36;96372.16;;;42.73;53.47
6829;BME280;17930;48.592;8.868;2023-08-24T13:07:03;96359.00;;;42.52;51.29
6829;BME280;17930;48.592;8.868;2023-08-24T13:09:29;96362.75;;;40.88;54.95